Latest Weather Observations for Lameroo AWS

IDS60801

Issued at 12:02 pm CDT Saturday 25 March 2017 (issued every 30 minutes, with the page automatically refreshed every 10 minutes)

About weather observations | Map of weather stations | Latest weather observations for SA | Other Formats
Station Details ID: 025562 Name: AUSTIN PLAINS Lat: -35.38 Lon: 140.54 Height: 110.08 m
Data from the previous 72 hours. | See also: Recent months at Lameroo AWS
Date/Time
CDT
Temp
°C
App
Temp
°C
Dew
Point
°C
Rel
Hum
%
Delta-T
°C
Wind Press
QNH
hPa
Press
MSL
hPa
Rain since
9am
mm
Dir  Spd
km/h
Gust
km/h
Spd
kts
Gust
kts
25/12:00pm 28.1 25.1 13.6 41 8.7 WSW 22 32 12 17 1013.1 1012.8 0.0
25/11:30am 28.6 25.5 13.3 39 9.1 SW 22 33 12 18 1013.2 1012.9 0.0
25/11:00am 28.3 26.3 13.8 41 8.7 WSW 17 26 9 14 1013.1 1012.8 0.0
25/10:30am 28.0 25.4 13.1 39 8.8 WSW 19 26 10 14 1013.1 1012.8 0.0
25/10:00am 26.5 23.8 12.9 43 8.0 W 19 24 10 13 1013.0 1012.7 0.0
25/09:30am 24.9 23.9 14.7 53 6.1 WNW 13 17 7 9 1012.9 1012.6 0.0
25/09:00am 23.8 22.8 14.5 56 5.5 NNW 13 17 7 9 1012.5 1012.2 0.0
25/08:30am 22.4 21.9 14.8 62 4.5 NNW 11 15 6 8 1012.4 1012.1 0.0
25/08:00am 21.1 21.0 15.0 68 3.6 NNW 9 11 5 6 1012.3 1012.0 0.0
25/07:30am 20.5 20.3 14.6 69 3.5 NW 9 11 5 6 1012.0 1011.7 0.0
25/07:00am 20.7 20.4 14.4 67 3.7 N 9 11 5 6 1011.5 1011.2 0.0
25/06:30am 21.0 20.7 14.4 66 3.9 N 9 11 5 6 1011.3 1011.0 0.0
25/06:00am 21.2 20.6 14.6 66 3.9 NNE 11 13 6 7 1011.0 1010.7 0.0
25/05:30am 21.1 20.8 14.5 66 3.9 NNE 9 11 5 6 1010.9 1010.6 0.0
25/05:00am 21.3 21.0 14.5 65 4.0 NNE 9 13 5 7 1010.8 1010.5 0.0
25/04:30am 21.0 21.0 14.2 65 4.0 NNE 7 9 4 5 1010.9 1010.6 0.0
25/04:00am 21.7 21.1 14.6 64 4.2 NNE 11 13 6 7 1011.0 1010.7 0.0
25/03:30am 21.6 20.4 14.0 62 4.4 NNE 13 17 7 9 1011.1 1010.8 0.0
25/03:00am 22.5 20.2 14.1 59 4.9 NNE 19 26 10 14 1011.0 1010.7 0.0
25/02:30am 22.9 20.3 13.9 57 5.3 NE 20 26 11 14 1011.0 1010.7 0.0
25/02:00am 22.4 20.6 13.2 56 5.3 NE 15 20 8 11 1011.5 1011.2 0.0
25/01:30am 21.4 19.6 12.0 55 5.3 ENE 13 15 7 8 1011.8 1011.5 0.0
25/01:00am 21.2 19.2 11.5 54 5.4 ENE 13 15 7 8 1012.3 1012.0 0.0
25/12:30am 21.5 19.8 11.2 52 5.7 ENE 11 15 6 8 1012.5 1012.2 0.0
25/12:00am 21.6 19.5 11.0 51 5.9 E 13 15 7 8 1012.8 1012.5 0.0
 
Date/Time
CDT
Temp
°C
App
Temp
°C
Dew
Point
°C
Rel
Hum
%
Delta-T
°C
Wind Press
QNH
hPa
Press
MSL
hPa
Rain since
9am
mm
Dir  Spd
km/h
Gust
km/h
Spd
kts
Gust
kts
24/11:30pm 21.4 19.2 10.9 51 5.8 E 13 15 7 8 1012.9 1012.6 0.0
24/11:00pm 20.7 18.4 10.5 52 5.6 E 13 15 7 8 1013.2 1012.9 0.0
24/10:30pm 21.3 19.0 10.5 50 5.9 E 13 15 7 8 1013.0 1012.7 0.0
24/10:00pm 21.8 19.5 10.3 48 6.3 E 13 15 7 8 1013.1 1012.8 0.0
24/09:30pm 21.9 20.0 10.4 48 6.3 E 11 13 6 7 1013.1 1012.8 0.0
24/09:00pm 22.9 20.9 10.3 45 6.9 E 11 11 6 6 1013.0 1012.7 0.0
24/08:30pm 23.1 21.2 10.5 45 7.0 E 11 13 6 7 1012.8 1012.5 0.0
24/08:00pm 23.1 20.4 10.2 44 7.1 E 15 19 8 10 1012.6 1012.3 0.0
24/07:30pm 24.2 22.1 9.8 40 7.9 E 11 15 6 8 1012.6 1012.3 0.0
24/07:00pm 27.2 25.5 10.0 34 9.6 ESE 9 11 5 6 1012.9 1012.6 0.0
24/06:30pm 29.6 29.6 9.7 29 11.2 CALM 0 4 0 2 1012.7 1012.4 0.0
24/06:00pm 29.4 28.0 9.5 29 11.2 N 7 9 4 5 1012.5 1012.2 0.0
24/05:30pm 30.4 29.1 9.8 28 11.7 NW 7 11 4 6 1012.6 1012.3 0.0
24/05:00pm 30.2 29.5 10.2 29 11.4 ESE 4 7 2 4 1012.7 1012.4 0.0
24/04:30pm 30.5 29.9 10.5 29 11.5 E 4 7 2 4 1012.5 1012.2 0.0
24/04:00pm 29.7 28.5 10.3 30 11.1 NE 7 17 4 9 1012.6 1012.3 0.0
24/03:30pm 29.6 27.4 10.7 31 10.8 NE 13 24 7 13 1012.6 1012.3 0.0
24/03:00pm 29.3 26.4 10.9 32 10.6 NE 17 28 9 15 1012.5 1012.2 0.0
24/02:30pm 29.7 26.3 11.2 31 10.7 ENE 20 33 11 18 1012.9 1012.6 0.0
24/02:00pm 28.3 25.0 10.9 34 9.9 NE 19 30 10 16 1013.9 1013.5 0.0
24/01:30pm 28.0 25.4 13.1 39 8.8 ENE 19 30 10 16 1014.1 1013.7 0.0
24/01:00pm 28.1 24.8 12.8 38 9.0 ENE 22 32 12 17 1014.2 1013.8 0.0
24/12:30pm 26.7 23.4 12.7 42 8.2 ENE 22 30 12 16 1015.1 1014.7 0.0
24/12:00pm 25.9 22.8 13.4 46 7.4 ENE 22 32 12 17 1015.9 1015.6 0.0
24/11:30am 25.8 22.0 13.6 47 7.2 ENE 26 33 14 18 1016.2 1015.9 0.0
24/11:00am 24.4 21.4 13.6 51 6.3 ENE 22 28 12 15 1016.5 1016.2 0.0
24/10:30am 23.7 20.3 13.6 53 5.9 ENE 24 30 13 16 1016.3 1016.0 0.0
24/10:00am 22.9 19.6 13.9 57 5.3 ENE 24 32 13 17 1016.6 1016.3 0.0
24/09:30am 21.6 18.3 14.0 62 4.4 ENE 24 30 13 16 1016.6 1016.3 0.0
24/09:00am 19.4 16.7 13.6 69 3.3 E 20 26 11 14 1016.9 1016.6 0.0
24/08:30am 17.6 15.3 13.1 75 2.5 E 17 20 9 11 1017.1 1016.8 0.0
24/08:00am 16.9 14.6 13.0 78 2.2 E 17 20 9 11 1016.6 1016.3 0.0
24/07:30am 15.6 13.2 12.5 82 1.7 E 17 20 9 11 1016.3 1016.0 0.0
24/07:00am 15.6 13.1 12.4 81 1.8 E 17 20 9 11 1016.1 1015.8 0.0
24/06:30am 15.7 13.2 12.3 80 1.9 E 17 20 9 11 1015.8 1015.5 0.0
24/06:00am 16.2 14.1 12.4 78 2.1 E 15 19 8 10 1015.9 1015.6 0.0
24/05:30am 16.5 14.1 12.5 77 2.2 E 17 22 9 12 1015.5 1015.2 0.0
24/05:00am 17.0 14.5 12.3 74 2.6 E 17 20 9 11 1016.0 1015.7 0.0
24/04:30am 17.3 14.4 12.4 73 2.7 E 19 22 10 12 1015.9 1015.6 0.0
24/04:00am 17.7 14.3 12.4 71 3.0 E 22 26 12 14 1015.5 1015.2 0.0
24/03:30am 18.4 15.0 12.4 68 3.4 E 22 26 12 14 1015.8 1015.5 0.0
24/03:00am 18.7 15.2 12.2 66 3.6 E 22 28 12 15 1016.1 1015.8 0.0
24/02:30am 19.1 16.1 12.4 65 3.8 ESE 20 26 11 14 1016.4 1016.1 0.0
24/02:00am 19.4 15.9 12.2 63 4.0 ESE 22 28 12 15 1016.5 1016.2 0.0
24/01:30am 19.9 16.0 12.2 61 4.3 ESE 24 30 13 16 1016.5 1016.2 0.0
24/01:00am 20.3 16.7 12.0 59 4.7 ESE 22 30 12 16 1016.8 1016.5 0.0
24/12:30am 20.9 16.9 11.8 56 5.1 ESE 24 30 13 16 1016.8 1016.5 0.0
24/12:00am 21.3 17.2 11.6 54 5.4 ESE 24 28 13 15 1017.0 1016.7 0.0
 
Date/Time
CDT
Temp
°C
App
Temp
°C
Dew
Point
°C
Rel
Hum
%
Delta-T
°C
Wind Press
QNH
hPa
Press
MSL
hPa
Rain since
9am
mm
Dir  Spd
km/h
Gust
km/h
Spd
kts
Gust
kts
23/11:30pm 21.6 17.5 11.6 53 5.6 ESE 24 28 13 15 1017.1 1016.8 0.0
23/11:00pm 21.6 17.9 11.6 53 5.6 ESE 22 26 12 14 1017.0 1016.7 0.0
23/10:30pm 22.0 18.7 11.7 52 5.8 ESE 20 26 11 14 1017.1 1016.8 0.0
23/10:00pm 22.7 19.1 12.0 50 6.1 ESE 22 28 12 15 1016.6 1016.3 0.0
23/09:30pm 23.1 20.1 12.7 52 6.0 ESE 20 26 11 14 1016.4 1016.1 0.0
23/09:00pm 23.0 20.6 12.6 52 6.0 SE 17 19 9 10 1016.2 1015.9 0.0
23/08:30pm 23.7 21.3 12.7 50 6.3 SE 17 19 9 10 1015.9 1015.6 0.0
23/08:00pm 24.1 21.6 12.4 48 6.7 ESE 17 19 9 10 1015.6 1015.3 0.0
23/07:30pm 25.2 22.9 11.7 43 7.7 ESE 15 17 8 9 1015.4 1015.0 0.0
23/07:00pm 27.2 24.6 12.0 38 8.8 ESE 17 22 9 12 1015.1 1014.7 0.0
23/06:30pm 28.4 24.8 11.9 36 9.6 ESE 22 28 12 15 1014.9 1014.5 0.0
23/06:00pm 28.9 25.7 11.9 35 9.9 ESE 20 28 11 15 1014.9 1014.5 0.0
23/05:30pm 29.3 27.0 11.8 34 10.2 ESE 15 28 8 15 1014.7 1014.3 0.0
23/05:00pm 29.7 26.6 11.7 33 10.5 ESE 19 30 10 16 1014.7 1014.3 0.0
23/04:30pm 29.4 26.2 11.9 34 10.2 ESE 20 32 11 17 1014.7 1014.3 0.0
23/04:00pm 29.2 25.9 11.7 34 10.2 ESE 20 33 11 18 1014.8 1014.4 0.0
23/03:30pm 28.7 24.7 11.7 35 9.9 ESE 24 33 13 18 1014.9 1014.5 0.0
23/03:00pm 28.8 25.7 12.2 35 9.7 ESE 20 30 11 16 1015.1 1014.7 0.0
23/02:30pm 28.3 25.2 12.2 37 9.4 ESE 20 28 11 15 1015.5 1015.2 0.0
23/02:00pm 27.6 25.0 13.2 41 8.5 ESE 19 28 10 15 1016.1 1015.8 0.0
23/01:30pm 26.4 23.7 12.8 43 7.9 E 19 33 10 18 1016.4 1016.1 0.0
23/01:00pm 26.0 24.0 12.8 44 7.7 ESE 15 22 8 12 1017.4 1017.1 0.0
23/12:30pm 25.3 22.4 12.2 44 7.5 SE 19 26 10 14 1017.5 1017.2 0.0
23/12:00pm 25.0 22.6 12.6 46 7.2 SE 17 24 9 13 1017.6 1017.3 0.0
23/11:30am 23.3 21.6 12.6 51 6.1 ESE 13 19 7 10 1018.0 1017.7 0.0
23/11:00am 22.1 20.4 12.6 55 5.4 ESE 13 19 7 10 1018.5 1018.2 0.0
23/10:30am 21.8 18.5 12.9 57 5.1 ESE 22 28 12 15 1018.2 1017.9 0.0
23/10:00am 20.4 16.8 12.9 62 4.3 ESE 24 30 13 16 1018.1 1017.8 0.0
23/09:30am 18.7 14.7 12.9 69 3.3 ESE 26 33 14 18 1018.0 1017.7 0.0
23/09:00am 17.1 13.5 13.2 78 2.2 SE 24 33 13 18 1017.9 1017.6 0.0
23/08:30am 15.1 12.3 13.1 88 1.1 SSE 20 26 11 14 1017.9 1017.6 0.0
23/08:00am 14.0 - - - - SSE 19 22 10 12 1017.8 1017.5 0.0
23/07:30am 13.1 - - - - S 15 17 8 9 1017.7 1017.4 0.0
23/07:00am 13.3 - - - - SSE 19 20 10 11 1017.4 1017.1 0.0
23/06:30am 13.0 - - - - S 15 19 8 10 1017.2 1016.9 0.0
23/06:00am 13.0 - - - - S 17 20 9 11 1017.1 1016.8 0.0
23/05:30am 13.2 - - - - S 15 17 8 9 1017.1 1016.8 0.0
23/05:00am 13.4 - - - - S 17 19 9 10 1017.0 1016.7 0.0
23/04:30am 13.4 - - - - S 17 19 9 10 1016.8 1016.5 0.0
23/04:00am 13.7 - - - - S 15 20 8 11 1017.1 1016.8 0.0
23/03:30am 14.1 12.2 14.1 100 0.0 S 17 20 9 11 1016.7 1016.4 0.0
23/03:00am 14.4 12.5 13.0 91 0.8 S 15 19 8 10 1016.8 1016.5 0.0
23/02:30am 15.1 12.9 13.3 89 1.0 SSE 17 20 9 11 1016.7 1016.4 0.0
23/02:00am 15.5 13.3 13.3 87 1.2 SSE 17 20 9 11 1017.0 1016.7 0.0
23/01:30am 16.0 13.6 13.7 86 1.3 SSE 19 22 10 12 1017.3 1017.0 0.0
23/01:00am 16.4 13.8 13.7 84 1.5 SSE 20 24 11 13 1017.5 1017.2 0.0
23/12:30am 16.9 14.2 13.6 81 1.9 SSE 20 26 11 14 1017.7 1017.4 0.0
23/12:00am 17.4 13.9 13.5 78 2.2 SSE 24 30 13 16 1017.9 1017.6 0.0
 
Date/Time
CDT
Temp
°C
App
Temp
°C
Dew
Point
°C
Rel
Hum
%
Delta-T
°C
Wind Press
QNH
hPa
Press
MSL
hPa
Rain since
9am
mm
Dir  Spd
km/h
Gust
km/h
Spd
kts
Gust
kts
22/11:30pm 18.1 14.7 13.6 75 2.6 SSE 24 33 13 18 1018.1 1017.8 0.0
22/11:00pm 19.5 15.4 13.9 70 3.2 SSE 28 35 15 19 1018.0 1017.7 0.0
22/10:30pm 20.1 16.4 13.8 67 3.6 SSE 26 32 14 17 1017.8 1017.5 0.0
22/10:00pm 20.7 17.0 13.9 65 3.9 SSE 26 33 14 18 1017.7 1017.4 0.0
22/09:30pm 21.0 16.9 13.9 64 4.1 SSE 28 33 15 18 1017.4 1017.1 0.0
22/09:00pm 21.2 16.4 13.9 63 4.2 SSE 32 41 17 22 1016.9 1016.6 0.0
22/08:30pm 21.4 16.3 13.8 62 4.4 SSE 33 43 18 23 1016.5 1016.2 0.0
22/08:00pm 21.8 17.7 13.7 60 4.7 SSE 28 33 15 18 1016.1 1015.8 0.0
22/07:30pm 22.0 17.2 13.9 60 4.7 SSE 32 41 17 22 1015.8 1015.5 0.0
22/07:00pm 22.4 16.9 13.7 58 5.1 SSE 35 46 19 25 1015.7 1015.4 0.0
22/06:30pm 22.9 17.8 13.1 54 5.7 SSE 32 41 17 22 1015.5 1015.2 0.0
22/06:00pm 23.6 18.3 13.2 52 6.0 SSE 33 41 18 22 1015.2 1014.8 0.0
22/05:30pm 24.3 18.5 12.6 48 6.7 SSE 35 43 19 23 1015.2 1014.8 0.0
22/05:00pm 24.8 20.0 13.0 47 6.9 SSE 30 35 16 19 1015.1 1014.7 0.0
22/04:30pm 25.2 20.4 12.8 46 7.2 SSE 30 39 16 21 1014.9 1014.5 0.0
22/04:00pm 24.9 20.8 12.8 47 7.0 SSE 26 35 14 19 1014.9 1014.5 0.0
22/03:30pm 24.3 20.4 13.2 50 6.5 SSE 26 35 14 19 1015.1 1014.7 0.0
22/03:00pm 23.9 20.0 13.4 51 6.1 SSE 26 35 14 19 1015.3 1014.9 0.0
22/02:30pm 23.7 19.5 13.6 53 5.9 SSE 28 35 15 19 1015.4 1015.0 0.0
22/02:00pm 23.5 19.3 13.4 53 5.9 SSE 28 37 15 20 1015.5 1015.2 0.0
22/01:30pm 23.9 19.3 13.4 51 6.1 SSE 30 37 16 20 1015.7 1015.4 0.0
22/01:00pm 24.0 19.1 13.8 53 6.0 SSE 32 39 17 21 1015.8 1015.5 0.0
22/12:30pm 23.4 18.8 13.6 54 5.7 SSE 30 37 16 20 1016.1 1015.8 0.0

Other Formats:

Comma delimited format used in spreadsheet applications
http://www.bom.gov.au/fwo/IDS60801/IDS60801.94690.axf

JavaScript Object Notation format (JSON) in row-major order
http://www.bom.gov.au/fwo/IDS60801/IDS60801.94690.json